Orbital elements of ARIANE 44L DEB
| Launched | 28 October 1991 |
| Flight ended | – |
| Launch site | Europe's Spaceport, Kourou, French Guiana |
| Owner | France |
| NORAD ID | 32998 |
| Date fetched |
Epoch osculation |
Inc. [°] |
Ecc. | RA asc node [hr] |
Arg Peri. [°] |
Mean anom [°] |
Mean motion [rev/day] |
Abs. mag |
| Date fetched |
Epoch osculation |
Inc. [°] |
Ecc. | RA asc node [hr] |
Arg Peri. [°] |
Mean anom [°] |
Mean motion [rev/day] |
Abs. mag |
| 2026 May 08 17:57 | 2026 May 05 11:13:38 | 5.4909 | 0.66309 | 7.3457 | 188.9278 | 136.8037 | 2.88447 | – |
| 2026 May 07 17:58 | 2026 May 05 11:13:38 | 5.4909 | 0.66309 | 7.3457 | 188.9278 | 136.8037 | 2.88447 | – |
| 2026 May 06 17:57 | 2026 May 05 11:13:38 | 5.4909 | 0.66309 | 7.3457 | 188.9278 | 136.8037 | 2.88447 | – |
| 2026 May 05 17:57 | 2026 May 05 11:13:38 | 5.4909 | 0.66309 | 7.3457 | 188.9278 | 136.8037 | 2.88447 | – |
| 2026 May 04 17:57 | 2026 Apr 30 13:32:20 | 5.4774 | 0.66314 | 7.5084 | 184.0698 | 136.8037 | 2.88447 | – |
| 2026 May 03 17:57 | 2026 Apr 30 13:32:20 | 5.4774 | 0.66314 | 7.5084 | 184.0698 | 136.8037 | 2.88447 | – |
| 2026 May 02 17:57 | 2026 Apr 30 13:32:20 | 5.4774 | 0.66314 | 7.5084 | 184.0698 | 136.8037 | 2.88447 | – |
| 2026 May 01 17:56 | 2026 Apr 30 13:32:20 | 5.4774 | 0.66314 | 7.5084 | 184.0698 | 136.8037 | 2.88447 | – |
| 2026 Apr 30 17:56 | 2026 Apr 30 13:32:20 | 5.4774 | 0.66314 | 7.5084 | 184.0698 | 136.8037 | 2.88447 | – |
| 2026 Apr 29 17:57 | 2026 Apr 24 12:29:44 | 5.4600 | 0.66320 | 7.7098 | 178.0707 | 136.8037 | 2.88447 | – |
| 2026 Apr 28 17:56 | 2026 Apr 24 12:29:44 | 5.4600 | 0.66320 | 7.7098 | 178.0707 | 136.8037 | 2.88447 | – |
| 2026 Apr 27 17:58 | 2026 Apr 24 12:29:44 | 5.4600 | 0.66320 | 7.7098 | 178.0707 | 136.8037 | 2.88447 | – |
| 2026 Apr 26 17:58 | 2026 Apr 24 12:29:44 | 5.4600 | 0.66320 | 7.7098 | 178.0707 | 136.8037 | 2.88447 | – |
| 2026 Apr 25 17:58 | 2026 Apr 24 12:29:44 | 5.4600 | 0.66320 | 7.7098 | 178.0707 | 136.8037 | 2.88447 | – |
| 2026 Apr 24 17:59 | 2026 Apr 24 12:29:44 | 5.4600 | 0.66320 | 7.7098 | 178.0707 | 136.8037 | 2.88447 | – |
| 2026 Apr 23 17:57 | 2026 Apr 19 12:28:20 | 5.4442 | 0.66327 | 7.8778 | 173.0853 | 136.8037 | 2.88447 | – |
| 2026 Apr 22 17:57 | 2026 Apr 19 12:28:20 | 5.4442 | 0.66327 | 7.8778 | 173.0853 | 136.8037 | 2.88447 | – |
| 2026 Apr 21 17:57 | 2026 Apr 19 12:28:20 | 5.4442 | 0.66327 | 7.8778 | 173.0853 | 136.8037 | 2.88447 | – |
| 2026 Apr 20 17:57 | 2026 Apr 19 12:28:20 | 5.4442 | 0.66327 | 7.8778 | 173.0853 | 136.8037 | 2.88447 | – |
| 2026 Apr 19 17:58 | 2026 Apr 19 12:28:20 | 5.4442 | 0.66327 | 7.8778 | 173.0853 | 136.8037 | 2.88447 | – |
| 2026 Apr 18 17:56 | 2026 Apr 13 01:45:29 | 5.4244 | 0.66335 | 8.0962 | 166.6279 | 136.8037 | 2.88447 | – |
| 2026 Apr 16 17:57 | 2026 Apr 13 01:45:29 | 5.4244 | 0.66335 | 8.0962 | 166.6279 | 136.8037 | 2.88447 | – |
| 2026 Apr 14 17:57 | 2026 Apr 13 01:45:29 | 5.4244 | 0.66335 | 8.0962 | 166.6279 | 136.8037 | 2.88447 | – |
| 2026 Apr 13 17:57 | 2026 Apr 13 01:45:29 | 5.4244 | 0.66335 | 8.0962 | 166.6279 | 136.8037 | 2.88447 | – |
| 2026 Apr 12 17:57 | 2026 Apr 08 13:05:59 | 5.4101 | 0.66343 | 8.2504 | 162.0882 | 136.8037 | 2.88447 | – |
| 2026 Apr 11 17:57 | 2026 Apr 08 13:05:59 | 5.4101 | 0.66343 | 8.2504 | 162.0882 | 136.8037 | 2.88447 | – |